sensor_id;sensor_type;location;lat;lon;timestamp;pressure;altitude;pressure_sealevel;temperature;humidity
59767;BME280;46248;58.364;25.582;2022-09-25T00:00:18;100605.91;;;7.65;83.77
59767;BME280;46248;58.364;25.582;2022-09-25T00:03:41;100599.84;;;7.65;82.94
59767;BME280;46248;58.364;25.582;2022-09-25T00:07:03;100606.59;;;7.70;83.02
59767;BME280;46248;58.364;25.582;2022-09-25T00:10:25;100590.38;;;7.62;83.21
59767;BME280;46248;58.364;25.582;2022-09-25T00:13:49;100598.84;;;7.69;83.42
59767;BME280;46248;58.364;25.582;2022-09-25T00:17:12;100587.84;;;7.61;83.28
59767;BME280;46248;58.364;25.582;2022-09-25T00:20:35;100595.47;;;7.65;83.12
59767;BME280;46248;58.364;25.582;2022-09-25T00:23:58;100599.84;;;7.65;83.44
59767;BME280;46248;58.364;25.582;2022-09-25T00:27:20;100595.59;;;7.62;83.21
59767;BME280;46248;58.364;25.582;2022-09-25T00:30:43;100593.00;;;7.62;82.70
59767;BME280;46248;58.364;25.582;2022-09-25T00:34:06;100589.53;;;7.62;84.13
59767;BME280;46248;58.364;25.582;2022-09-25T00:37:32;100588.69;;;7.61;83.33
59767;BME280;46248;58.364;25.582;2022-09-25T00:40:54;100591.31;;;7.61;83.12
59767;BME280;46248;58.364;25.582;2022-09-25T00:44:52;100587.91;;;7.59;83.50
59767;BME280;46248;58.364;25.582;2022-09-25T00:48:16;100582.75;;;7.57;84.45
59767;BME280;46248;58.364;25.582;2022-09-25T00:51:42;100569.13;;;7.51;83.33
59767;BME280;46248;58.364;25.582;2022-09-25T00:55:08;100571.84;;;7.48;83.87
59767;BME280;46248;58.364;25.582;2022-09-25T00:58:34;100579.00;;;7.41;84.09
59767;BME280;46248;58.364;25.582;2022-09-25T01:01:58;100566.22;;;7.35;83.40
59767;BME280;46248;58.364;25.582;2022-09-25T01:05:23;100585.97;;;7.41;83.93
59767;BME280;46248;58.364;25.582;2022-09-25T01:08:46;100580.00;;;7.39;83.67
59767;BME280;46248;58.364;25.582;2022-09-25T01:12:09;100571.50;;;7.33;83.66
59767;BME280;46248;58.364;25.582;2022-09-25T01:15:37;100546.94;;;7.17;84.45
59767;BME280;46248;58.364;25.582;2022-09-25T01:19:12;100555.63;;;7.16;84.52
59767;BME280;46248;58.364;25.582;2022-09-25T01:22:49;100579.75;;;7.21;84.01
59767;BME280;46248;58.364;25.582;2022-09-25T01:26:30;100574.66;;;7.18;84.47
59767;BME280;46248;58.364;25.582;2022-09-25T01:30:03;100566.28;;;7.10;84.49
59767;BME280;46248;58.364;25.582;2022-09-25T01:33:31;100565.38;;;7.11;84.23
59767;BME280;46248;58.364;25.582;2022-09-25T01:36:56;100581.78;;;7.13;85.01
59767;BME280;46248;58.364;25.582;2022-09-25T01:40:24;100582.81;;;7.09;84.35
59767;BME280;46248;58.364;25.582;2022-09-25T01:43:54;100578.47;;;7.08;84.13
59767;BME280;46248;58.364;25.582;2022-09-25T01:47:23;100572.50;;;7.06;84.57
59767;BME280;46248;58.364;25.582;2022-09-25T01:50:50;100580.47;;;7.01;84.72
59767;BME280;46248;58.364;25.582;2022-09-25T01:54:17;100554.19;;;6.84;84.69
59767;BME280;46248;58.364;25.582;2022-09-25T01:57:43;100573.06;;;6.91;84.93
59767;BME280;46248;58.364;25.582;2022-09-25T02:01:10;100573.16;;;6.87;85.00
59767;BME280;46248;58.364;25.582;2022-09-25T02:04:36;100569.81;;;6.84;85.01
59767;BME280;46248;58.364;25.582;2022-09-25T02:08:02;100543.63;;;6.63;84.65
59767;BME280;46248;58.364;25.582;2022-09-25T02:11:30;100529.44;;;6.47;83.78
59767;BME280;46248;58.364;25.582;2022-09-25T02:14:58;100549.88;;;6.58;84.12
59767;BME280;46248;58.364;25.582;2022-09-25T02:18:23;100562.69;;;6.64;84.62
59767;BME280;46248;58.364;25.582;2022-09-25T02:22:07;100547.44;;;6.53;84.44
59767;BME280;46248;58.364;25.582;2022-09-25T02:25:35;100545.22;;;6.42;84.09
59767;BME280;46248;58.364;25.582;2022-09-25T02:28:59;100521.47;;;6.27;84.90
59767;BME280;46248;58.364;25.582;2022-09-25T02:32:25;100560.75;;;6.44;85.38
59767;BME280;46248;58.364;25.582;2022-09-25T02:35:49;100559.16;;;6.40;85.86
59767;BME280;46248;58.364;25.582;2022-09-25T02:39:15;100546.25;;;6.37;85.74
59767;BME280;46248;58.364;25.582;2022-09-25T02:42:44;100547.94;;;6.38;86.36
59767;BME280;46248;58.364;25.582;2022-09-25T02:46:14;100547.91;;;6.39;86.18
59767;BME280;46248;58.364;25.582;2022-09-25T02:49:46;100545.25;;;6.41;86.34
59767;BME280;46248;58.364;25.582;2022-09-25T02:53:16;100534.91;;;6.39;86.62
59767;BME280;46248;58.364;25.582;2022-09-25T02:56:44;100535.72;;;6.41;86.77
59767;BME280;46248;58.364;25.582;2022-09-25T03:00:09;100530.44;;;6.43;86.69
59767;BME280;46248;58.364;25.582;2022-09-25T03:03:33;100512.56;;;6.34;86.67
59767;BME280;46248;58.364;25.582;2022-09-25T03:06:56;100527.84;;;6.43;85.88
59767;BME280;46248;58.364;25.582;2022-09-25T03:10:19;100533.13;;;6.41;86.25
59767;BME280;46248;58.364;25.582;2022-09-25T03:13:45;100525.34;;;6.40;85.85
59767;BME280;46248;58.364;25.582;2022-09-25T03:17:07;100526.38;;;6.36;85.52
59767;BME280;46248;58.364;25.582;2022-09-25T03:20:30;100518.72;;;6.31;85.65
59767;BME280;46248;58.364;25.582;2022-09-25T03:23:52;100523.16;;;6.28;85.91
59767;BME280;46248;58.364;25.582;2022-09-25T03:27:16;100522.41;;;6.24;86.20
59767;BME280;46248;58.364;25.582;2022-09-25T03:30:41;100528.66;;;6.18;85.72
59767;BME280;46248;58.364;25.582;2022-09-25T03:34:03;100519.38;;;6.11;85.88
59767;BME280;46248;58.364;25.582;2022-09-25T03:37:25;100519.59;;;6.05;85.56
59767;BME280;46248;58.364;25.582;2022-09-25T03:40:47;100525.94;;;5.96;85.56
59767;BME280;46248;58.364;25.582;2022-09-25T03:44:10;100503.84;;;5.82;85.02
59767;BME280;46248;58.364;25.582;2022-09-25T03:47:33;100522.78;;;5.85;85.01
59767;BME280;46248;58.364;25.582;2022-09-25T03:50:56;100523.06;;;5.76;84.08
59767;BME280;46248;58.364;25.582;2022-09-25T03:54:18;100517.22;;;5.69;83.95
59767;BME280;46248;58.364;25.582;2022-09-25T03:57:40;100513.06;;;5.64;83.81
59767;BME280;46248;58.364;25.582;2022-09-25T04:01:02;100505.41;;;5.59;83.58
59767;BME280;46248;58.364;25.582;2022-09-25T04:04:25;100505.38;;;5.61;83.82
59767;BME280;46248;58.364;25.582;2022-09-25T04:07:47;100503.66;;;5.60;84.48
59767;BME280;46248;58.364;25.582;2022-09-25T04:11:09;100500.16;;;5.61;84.87
59767;BME280;46248;58.364;25.582;2022-09-25T04:14:31;100499.13;;;5.66;85.50
59767;BME280;46248;58.364;25.582;2022-09-25T04:17:53;100489.53;;;5.68;86.41
59767;BME280;46248;58.364;25.582;2022-09-25T04:21:16;100497.09;;;5.76;86.67
59767;BME280;46248;58.364;25.582;2022-09-25T04:24:38;100491.63;;;5.84;87.36
59767;BME280;46248;58.364;25.582;2022-09-25T04:28:09;100494.03;;;5.90;87.73
59767;BME280;46248;58.364;25.582;2022-09-25T04:31:31;100491.34;;;5.94;87.87
59767;BME280;46248;58.364;25.582;2022-09-25T04:34:53;100498.81;;;6.04;87.88
59767;BME280;46248;58.364;25.582;2022-09-25T04:38:15;100496.84;;;6.12;88.23
59767;BME280;46248;58.364;25.582;2022-09-25T04:41:38;100497.38;;;6.22;88.09
59767;BME280;46248;58.364;25.582;2022-09-25T04:44:59;100491.78;;;6.32;88.65
59767;BME280;46248;58.364;25.582;2022-09-25T04:48:21;100482.81;;;6.41;88.69
59767;BME280;46248;58.364;25.582;2022-09-25T04:51:43;100481.50;;;6.54;88.63
59767;BME280;46248;58.364;25.582;2022-09-25T04:55:07;100459.28;;;6.46;88.22
59767;BME280;46248;58.364;25.582;2022-09-25T04:58:30;100481.69;;;6.73;87.87
59767;BME280;46248;58.364;25.582;2022-09-25T05:01:52;100483.94;;;6.84;88.37
59767;BME280;46248;58.364;25.582;2022-09-25T05:05:15;100489.56;;;6.95;87.52
59767;BME280;46248;58.364;25.582;2022-09-25T05:08:36;100491.84;;;7.04;87.71
59767;BME280;46248;58.364;25.582;2022-09-25T05:12:00;100492.38;;;7.14;88.00
59767;BME280;46248;58.364;25.582;2022-09-25T05:15:23;100451.81;;;7.07;87.59
59767;BME280;46248;58.364;25.582;2022-09-25T05:18:45;100478.53;;;7.36;87.47
59767;BME280;46248;58.364;25.582;2022-09-25T05:22:06;100475.38;;;7.49;87.17
59767;BME280;46248;58.364;25.582;2022-09-25T05:25:29;100478.34;;;7.62;86.76
59767;BME280;46248;58.364;25.582;2022-09-25T05:28:53;100468.59;;;7.67;86.10
59767;BME280;46248;58.364;25.582;2022-09-25T05:32:15;100468.03;;;7.81;85.49
59767;BME280;46248;58.364;25.582;2022-09-25T05:35:38;100464.22;;;7.90;85.57
59767;BME280;46248;58.364;25.582;2022-09-25T05:39:00;100472.50;;;7.99;85.71
59767;BME280;46248;58.364;25.582;2022-09-25T05:42:22;100470.47;;;8.06;84.40
59767;BME280;46248;58.364;25.582;2022-09-25T05:45:52;100479.81;;;8.12;84.81
59767;BME280;46248;58.364;25.582;2022-09-25T05:49:14;100472.63;;;8.17;84.81
59767;BME280;46248;58.364;25.582;2022-09-25T05:52:36;100472.72;;;8.36;84.42
59767;BME280;46248;58.364;25.582;2022-09-25T05:56:00;100465.09;;;8.52;83.20
59767;BME280;46248;58.364;25.582;2022-09-25T05:59:22;100462.94;;;8.61;82.28
59767;BME280;46248;58.364;25.582;2022-09-25T06:02:50;100460.63;;;8.74;82.53
59767;BME280;46248;58.364;25.582;2022-09-25T06:06:12;100467.16;;;8.84;81.56
59767;BME280;46248;58.364;25.582;2022-09-25T06:09:34;100464.31;;;8.89;81.40
59767;BME280;46248;58.364;25.582;2022-09-25T06:12:57;100457.81;;;8.98;80.97
59767;BME280;46248;58.364;25.582;2022-09-25T06:16:19;100453.44;;;8.98;80.18
59767;BME280;46248;58.364;25.582;2022-09-25T06:19:44;100441.88;;;9.04;80.51
59767;BME280;46248;58.364;25.582;2022-09-25T06:23:06;100424.72;;;8.98;79.42
59767;BME280;46248;58.364;25.582;2022-09-25T06:26:28;100449.69;;;9.23;79.44
59767;BME280;46248;58.364;25.582;2022-09-25T06:29:50;100450.97;;;9.33;78.46
59767;BME280;46248;58.364;25.582;2022-09-25T06:33:13;100452.88;;;9.48;77.99
59767;BME280;46248;58.364;25.582;2022-09-25T06:36:36;100454.88;;;9.60;76.55
59767;BME280;46248;58.364;25.582;2022-09-25T06:39:59;100446.59;;;9.70;75.59
59767;BME280;46248;58.364;25.582;2022-09-25T06:43:21;100426.38;;;9.73;75.98
59767;BME280;46248;58.364;25.582;2022-09-25T06:46:43;100438.16;;;9.99;75.24
59767;BME280;46248;58.364;25.582;2022-09-25T06:50:06;100427.25;;;10.08;74.38
59767;BME280;46248;58.364;25.582;2022-09-25T06:53:30;100424.16;;;10.18;72.78
59767;BME280;46248;58.364;25.582;2022-09-25T06:56:52;100424.56;;;10.27;72.62
59767;BME280;46248;58.364;25.582;2022-09-25T07:00:14;100425.19;;;10.32;72.14
59767;BME280;46248;58.364;25.582;2022-09-25T07:03:36;100428.53;;;10.35;72.88
59767;BME280;46248;58.364;25.582;2022-09-25T07:07:08;100431.06;;;10.53;71.91
59767;BME280;46248;58.364;25.582;2022-09-25T07:10:31;100434.97;;;10.62;71.58
59767;BME280;46248;58.364;25.582;2022-09-25T07:13:54;100422.88;;;10.60;70.47
59767;BME280;46248;58.364;25.582;2022-09-25T07:17:16;100431.78;;;10.73;70.80
59767;BME280;46248;58.364;25.582;2022-09-25T07:20:38;100425.03;;;10.85;70.93
59767;BME280;46248;58.364;25.582;2022-09-25T07:24:01;100390.81;;;10.72;68.85
59767;BME280;46248;58.364;25.582;2022-09-25T07:27:24;100423.59;;;10.95;69.92
59767;BME280;46248;58.364;25.582;2022-09-25T07:30:46;100427.75;;;10.99;69.31
59767;BME280;46248;58.364;25.582;2022-09-25T07:34:09;100418.63;;;11.06;68.09
59767;BME280;46248;58.364;25.582;2022-09-25T07:37:32;100427.16;;;11.10;67.25
59767;BME280;46248;58.364;25.582;2022-09-25T07:40:54;100421.19;;;11.23;68.41
59767;BME280;46248;58.364;25.582;2022-09-25T07:44:18;100420.56;;;11.34;66.11
59767;BME280;46248;58.364;25.582;2022-09-25T07:47:55;100412.63;;;11.36;65.90
59767;BME280;46248;58.364;25.582;2022-09-25T07:51:18;100396.81;;;11.21;64.65
59767;BME280;46248;58.364;25.582;2022-09-25T07:54:41;100418.09;;;11.31;64.58
59767;BME280;46248;58.364;25.582;2022-09-25T07:58:03;100407.28;;;11.37;64.10
59767;BME280;46248;58.364;25.582;2022-09-25T08:01:26;100405.00;;;11.47;65.00
59767;BME280;46248;58.364;25.582;2022-09-25T08:04:48;100396.88;;;11.52;64.22
59767;BME280;46248;58.364;25.582;2022-09-25T08:08:10;100374.81;;;11.40;62.31
59767;BME280;46248;58.364;25.582;2022-09-25T08:11:33;100366.69;;;11.44;60.92
59767;BME280;46248;58.364;25.582;2022-09-25T08:14:55;100386.69;;;11.61;59.90
59767;BME280;46248;58.364;25.582;2022-09-25T08:18:18;100391.31;;;11.72;60.13
59767;BME280;46248;58.364;25.582;2022-09-25T08:21:39;100383.72;;;11.67;58.37
59767;BME280;46248;58.364;25.582;2022-09-25T08:25:01;100384.66;;;11.66;60.08
59767;BME280;46248;58.364;25.582;2022-09-25T08:28:23;100375.94;;;11.66;61.63
59767;BME280;46248;58.364;25.582;2022-09-25T08:31:46;100378.00;;;11.91;58.67
59767;BME280;46248;58.364;25.582;2022-09-25T08:35:09;100374.94;;;11.99;59.33
59767;BME280;46248;58.364;25.582;2022-09-25T08:38:32;100367.72;;;12.02;59.88
59767;BME280;46248;58.364;25.582;2022-09-25T08:41:54;100374.09;;;12.12;59.63
59767;BME280;46248;58.364;25.582;2022-09-25T08:45:25;100364.69;;;11.94;56.77
59767;BME280;46248;58.364;25.582;2022-09-25T08:49:06;100359.31;;;11.81;56.46
59767;BME280;46248;58.364;25.582;2022-09-25T08:52:33;100360.50;;;11.76;57.31
59767;BME280;46248;58.364;25.582;2022-09-25T08:55:56;100355.44;;;11.73;57.88
59767;BME280;46248;58.364;25.582;2022-09-25T08:59:40;100361.09;;;11.81;58.69
59767;BME280;46248;58.364;25.582;2022-09-25T09:03:04;100366.00;;;11.87;59.15
59767;BME280;46248;58.364;25.582;2022-09-25T09:06:30;100349.56;;;11.83;59.37
59767;BME280;46248;58.364;25.582;2022-09-25T09:09:59;100356.75;;;11.96;57.22
59767;BME280;46248;58.364;25.582;2022-09-25T09:13:25;100355.81;;;11.97;56.97
59767;BME280;46248;58.364;25.582;2022-09-25T09:16:55;100350.81;;;11.92;57.00
59767;BME280;46248;58.364;25.582;2022-09-25T09:20:25;100349.72;;;11.96;56.57
59767;BME280;46248;58.364;25.582;2022-09-25T09:23:56;100349.78;;;11.95;57.54
59767;BME280;46248;58.364;25.582;2022-09-25T09:27:34;100348.81;;;11.81;58.46
59767;BME280;46248;58.364;25.582;2022-09-25T09:31:03;100337.00;;;11.74;58.64
59767;BME280;46248;58.364;25.582;2022-09-25T09:34:56;100329.13;;;11.74;57.59
59767;BME280;46248;58.364;25.582;2022-09-25T09:38:32;100313.66;;;11.69;58.81
59767;BME280;46248;58.364;25.582;2022-09-25T09:42:05;100318.66;;;11.74;57.44
59767;BME280;46248;58.364;25.582;2022-09-25T09:45:37;100338.06;;;11.86;58.81
59767;BME280;46248;58.364;25.582;2022-09-25T09:49:11;100310.81;;;12.03;57.35
59767;BME280;46248;58.364;25.582;2022-09-25T09:52:37;100313.16;;;12.22;56.15
59767;BME280;46248;58.364;25.582;2022-09-25T09:56:02;100314.69;;;12.26;56.44
59767;BME280;46248;58.364;25.582;2022-09-25T09:59:37;100312.50;;;12.04;57.17
59767;BME280;46248;58.364;25.582;2022-09-25T10:03:10;100313.09;;;12.09;57.21
59767;BME280;46248;58.364;25.582;2022-09-25T10:06:37;100311.09;;;12.12;57.76
59767;BME280;46248;58.364;25.582;2022-09-25T10:09:59;100310.25;;;12.12;57.13
59767;BME280;46248;58.364;25.582;2022-09-25T10:13:24;100302.03;;;12.18;58.79
59767;BME280;46248;58.364;25.582;2022-09-25T10:16:46;100300.50;;;12.28;58.07
59767;BME280;46248;58.364;25.582;2022-09-25T10:20:14;100304.91;;;12.28;55.39
59767;BME280;46248;58.364;25.582;2022-09-25T10:23:40;100292.16;;;12.22;56.44
59767;BME280;46248;58.364;25.582;2022-09-25T10:27:20;100295.56;;;12.38;56.23
59767;BME280;46248;58.364;25.582;2022-09-25T10:30:44;100284.91;;;12.54;56.81
59767;BME280;46248;58.364;25.582;2022-09-25T10:34:17;100290.63;;;12.60;55.48
59767;BME280;46248;58.364;25.582;2022-09-25T10:37:43;100299.19;;;12.50;55.20
59767;BME280;46248;58.364;25.582;2022-09-25T10:41:10;100294.53;;;12.41;56.14
59767;BME280;46248;58.364;25.582;2022-09-25T10:44:35;100293.00;;;12.36;56.99
59767;BME280;46248;58.364;25.582;2022-09-25T10:47:57;100295.75;;;12.35;56.60
59767;BME280;46248;58.364;25.582;2022-09-25T10:51:37;100289.34;;;12.25;57.04
59767;BME280;46248;58.364;25.582;2022-09-25T10:55:12;100282.69;;;12.19;57.34
59767;BME280;46248;58.364;25.582;2022-09-25T10:58:39;100282.03;;;12.30;57.29
59767;BME280;46248;58.364;25.582;2022-09-25T11:02:11;100258.41;;;12.44;56.74
59767;BME280;46248;58.364;25.582;2022-09-25T11:05:35;100269.97;;;12.69;56.35
59767;BME280;46248;58.364;25.582;2022-09-25T11:09:04;100269.53;;;12.89;56.09
59767;BME280;46248;58.364;25.582;2022-09-25T11:12:30;100261.53;;;12.91;54.01
59767;BME280;46248;58.364;25.582;2022-09-25T11:15:57;100266.25;;;12.86;54.24
59767;BME280;46248;58.364;25.582;2022-09-25T11:19:27;100255.50;;;12.76;55.23
59767;BME280;46248;58.364;25.582;2022-09-25T11:22:54;100245.97;;;12.60;55.28
59767;BME280;46248;58.364;25.582;2022-09-25T11:26:21;100247.13;;;12.56;55.65
59767;BME280;46248;58.364;25.582;2022-09-25T11:29:53;100240.66;;;12.48;55.97
59767;BME280;46248;58.364;25.582;2022-09-25T11:33:24;100240.34;;;12.52;55.87
59767;BME280;46248;58.364;25.582;2022-09-25T11:36:55;100227.78;;;12.57;54.23
59767;BME280;46248;58.364;25.582;2022-09-25T11:40:29;100227.19;;;12.67;52.60
59767;BME280;46248;58.364;25.582;2022-09-25T11:44:17;100223.94;;;12.63;53.67
59767;BME280;46248;58.364;25.582;2022-09-25T11:47:48;100230.38;;;12.72;54.25
59767;BME280;46248;58.364;25.582;2022-09-25T11:51:20;100237.47;;;12.84;54.60
59767;BME280;46248;58.364;25.582;2022-09-25T11:55:14;100215.19;;;12.90;53.12
59767;BME280;46248;58.364;25.582;2022-09-25T11:58:52;100214.53;;;13.13;54.43
59767;BME280;46248;58.364;25.582;2022-09-25T12:02:23;100229.31;;;13.28;52.30
59767;BME280;46248;58.364;25.582;2022-09-25T12:06:00;100224.88;;;13.29;51.40
59767;BME280;46248;58.364;25.582;2022-09-25T12:09:40;100217.81;;;13.29;51.95
59767;BME280;46248;58.364;25.582;2022-09-25T12:13:14;100184.44;;;13.17;51.22
59767;BME280;46248;58.364;25.582;2022-09-25T12:16:44;100208.56;;;13.37;50.52
59767;BME280;46248;58.364;25.582;2022-09-25T12:20:14;100216.47;;;13.37;52.14
59767;BME280;46248;58.364;25.582;2022-09-25T12:23:47;100207.94;;;13.33;52.79
59767;BME280;46248;58.364;25.582;2022-09-25T12:27:17;100215.19;;;13.29;52.76
59767;BME280;46248;58.364;25.582;2022-09-25T12:30:48;100204.22;;;13.10;51.70
59767;BME280;46248;58.364;25.582;2022-09-25T12:34:24;100202.91;;;12.90;51.55
59767;BME280;46248;58.364;25.582;2022-09-25T12:37:53;100212.44;;;12.91;52.01
59767;BME280;46248;58.364;25.582;2022-09-25T12:41:23;100218.09;;;12.85;52.27
59767;BME280;46248;58.364;25.582;2022-09-25T12:44:52;100211.59;;;12.78;52.98
59767;BME280;46248;58.364;25.582;2022-09-25T12:48:21;100213.25;;;12.79;53.25
59767;BME280;46248;58.364;25.582;2022-09-25T12:51:47;100216.91;;;12.76;53.55
59767;BME280;46248;58.364;25.582;2022-09-25T12:55:16;100217.28;;;12.84;51.93
59767;BME280;46248;58.364;25.582;2022-09-25T12:58:55;100198.88;;;12.84;51.87
59767;BME280;46248;58.364;25.582;2022-09-25T13:02:25;100205.13;;;12.96;52.59
59767;BME280;46248;58.364;25.582;2022-09-25T13:05:52;100185.69;;;12.99;51.99
59767;BME280;46248;58.364;25.582;2022-09-25T13:09:27;100192.53;;;13.14;51.79
59767;BME280;46248;58.364;25.582;2022-09-25T13:12:54;100195.22;;;13.27;51.67
59767;BME280;46248;58.364;25.582;2022-09-25T13:16:18;100202.81;;;13.32;51.66
59767;BME280;46248;58.364;25.582;2022-09-25T13:19:41;100185.31;;;13.31;51.26
59767;BME280;46248;58.364;25.582;2022-09-25T13:23:08;100186.28;;;13.29;51.24
59767;BME280;46248;58.364;25.582;2022-09-25T13:26:43;100181.75;;;13.32;51.38
59767;BME280;46248;58.364;25.582;2022-09-25T13:30:06;100179.84;;;13.34;51.05
59767;BME280;46248;58.364;25.582;2022-09-25T13:33:50;100185.13;;;13.46;51.22
59767;BME280;46248;58.364;25.582;2022-09-25T13:37:14;100177.75;;;13.51;50.86
59767;BME280;46248;58.364;25.582;2022-09-25T13:40:37;100189.13;;;13.65;51.29
59767;BME280;46248;58.364;25.582;2022-09-25T13:48:32;100193.72;;;13.87;50.16
59767;BME280;46248;58.364;25.582;2022-09-25T13:51:56;100182.38;;;13.86;50.26
59767;BME280;46248;58.364;25.582;2022-09-25T13:55:19;100180.25;;;13.79;50.14
59767;BME280;46248;58.364;25.582;2022-09-25T14:02:43;100176.91;;;13.51;50.10
59767;BME280;46248;58.364;25.582;2022-09-25T14:06:09;100184.06;;;13.36;50.31
59767;BME280;46248;58.364;25.582;2022-09-25T14:09:33;100168.50;;;13.33;51.41
59767;BME280;46248;58.364;25.582;2022-09-25T14:12:55;100187.44;;;13.38;51.25
59767;BME280;46248;58.364;25.582;2022-09-25T14:16:23;100183.72;;;13.28;50.88
59767;BME280;46248;58.364;25.582;2022-09-25T14:19:52;100182.66;;;13.18;50.79
59767;BME280;46248;58.364;25.582;2022-09-25T14:23:22;100179.81;;;13.08;51.53
59767;BME280;46248;58.364;25.582;2022-09-25T14:26:48;100183.56;;;13.04;52.39
59767;BME280;46248;58.364;25.582;2022-09-25T14:30:12;100177.69;;;13.00;52.73
59767;BME280;46248;58.364;25.582;2022-09-25T14:37:51;100181.66;;;12.93;53.11
59767;BME280;46248;58.364;25.582;2022-09-25T14:41:32;100167.91;;;12.90;54.02
59767;BME280;46248;58.364;25.582;2022-09-25T14:45:20;100157.03;;;12.81;53.89
59767;BME280;46248;58.364;25.582;2022-09-25T14:48:48;100173.44;;;12.85;54.21
59767;BME280;46248;58.364;25.582;2022-09-25T14:52:14;100173.34;;;12.74;54.21
59767;BME280;46248;58.364;25.582;2022-09-25T14:55:42;100172.34;;;12.62;54.63
59767;BME280;46248;58.364;25.582;2022-09-25T14:59:07;100174.22;;;12.60;55.52
59767;BME280;46248;58.364;25.582;2022-09-25T15:02:34;100177.13;;;12.55;55.30
59767;BME280;46248;58.364;25.582;2022-09-25T15:05:59;100178.59;;;12.47;55.64
59767;BME280;46248;58.364;25.582;2022-09-25T15:09:28;100177.28;;;12.40;55.34
59767;BME280;46248;58.364;25.582;2022-09-25T15:12:50;100176.84;;;12.33;56.25
59767;BME280;46248;58.364;25.582;2022-09-25T15:16:15;100175.56;;;12.26;56.14
59767;BME280;46248;58.364;25.582;2022-09-25T15:19:59;100167.16;;;12.06;56.53
59767;BME280;46248;58.364;25.582;2022-09-25T15:23:22;100168.94;;;12.06;57.27
59767;BME280;46248;58.364;25.582;2022-09-25T15:26:48;100170.59;;;12.07;57.12
59767;BME280;46248;58.364;25.582;2022-09-25T15:30:13;100156.97;;;11.87;56.99
59767;BME280;46248;58.364;25.582;2022-09-25T15:33:37;100168.09;;;11.91;56.96
59767;BME280;46248;58.364;25.582;2022-09-25T15:37:15;100168.84;;;11.79;57.64
59767;BME280;46248;58.364;25.582;2022-09-25T15:40:38;100141.56;;;11.53;57.37
59767;BME280;46248;58.364;25.582;2022-09-25T15:44:20;100167.53;;;11.57;56.96
59767;BME280;46248;58.364;25.582;2022-09-25T15:47:49;100163.59;;;11.36;56.60
59767;BME280;46248;58.364;25.582;2022-09-25T15:51:14;100175.09;;;11.33;57.43
59767;BME280;46248;58.364;25.582;2022-09-25T15:54:42;100177.31;;;11.25;57.75
59767;BME280;46248;58.364;25.582;2022-09-25T15:58:11;100184.13;;;11.13;57.79
59767;BME280;46248;58.364;25.582;2022-09-25T16:01:34;100192.53;;;11.04;57.98
59767;BME280;46248;58.364;25.582;2022-09-25T16:05:16;100192.22;;;10.94;58.32
59767;BME280;46248;58.364;25.582;2022-09-25T16:08:41;100194.53;;;10.85;58.55
59767;BME280;46248;58.364;25.582;2022-09-25T16:12:20;100188.06;;;10.76;58.86
59767;BME280;46248;58.364;25.582;2022-09-25T16:15:48;100187.81;;;10.65;59.23
59767;BME280;46248;58.364;25.582;2022-09-25T16:19:25;100199.41;;;10.61;59.53
59767;BME280;46248;58.364;25.582;2022-09-25T16:22:51;100181.53;;;10.53;59.74
59767;BME280;46248;58.364;25.582;2022-09-25T16:26:15;100179.09;;;10.50;59.54
59767;BME280;46248;58.364;25.582;2022-09-25T16:29:43;100182.88;;;10.44;60.05
59767;BME280;46248;58.364;25.582;2022-09-25T16:33:21;100172.06;;;10.35;60.36
59767;BME280;46248;58.364;25.582;2022-09-25T16:36:45;100181.03;;;10.30;60.63
59767;BME280;46248;58.364;25.582;2022-09-25T16:40:19;100166.31;;;10.12;61.41
59767;BME280;46248;58.364;25.582;2022-09-25T16:43:42;100162.34;;;10.05;61.34
59767;BME280;46248;58.364;25.582;2022-09-25T16:47:14;100167.75;;;10.02;61.88
59767;BME280;46248;58.364;25.582;2022-09-25T16:50:38;100176.59;;;9.99;61.96
59767;BME280;46248;58.364;25.582;2022-09-25T16:54:01;100175.06;;;9.95;62.38
59767;BME280;46248;58.364;25.582;2022-09-25T16:57:25;100162.16;;;9.92;62.38
59767;BME280;46248;58.364;25.582;2022-09-25T17:00:49;100146.63;;;9.73;62.92
59767;BME280;46248;58.364;25.582;2022-09-25T17:04:13;100160.47;;;9.75;63.44
59767;BME280;46248;58.364;25.582;2022-09-25T17:07:36;100125.56;;;9.43;63.58
59767;BME280;46248;58.364;25.582;2022-09-25T17:10:58;100161.75;;;9.51;63.48
59767;BME280;46248;58.364;25.582;2022-09-25T17:14:22;100158.63;;;9.44;64.02
59767;BME280;46248;58.364;25.582;2022-09-25T17:17:45;100153.19;;;9.31;64.54
59767;BME280;46248;58.364;25.582;2022-09-25T17:21:13;100177.16;;;9.22;64.82
59767;BME280;46248;58.364;25.582;2022-09-25T17:24:35;100155.75;;;8.98;65.40
59767;BME280;46248;58.364;25.582;2022-09-25T17:27:57;100175.94;;;8.94;66.16
59767;BME280;46248;58.364;25.582;2022-09-25T17:31:20;100174.25;;;8.76;66.05
59767;BME280;46248;58.364;25.582;2022-09-25T17:34:44;100177.56;;;8.62;65.81
59767;BME280;46248;58.364;25.582;2022-09-25T17:38:07;100176.28;;;8.52;66.30
59767;BME280;46248;58.364;25.582;2022-09-25T17:41:33;100184.69;;;8.40;67.13
59767;BME280;46248;58.364;25.582;2022-09-25T17:44:56;100180.19;;;8.24;67.71
59767;BME280;46248;58.364;25.582;2022-09-25T17:48:19;100172.09;;;8.12;68.26
59767;BME280;46248;58.364;25.582;2022-09-25T17:51:43;100168.97;;;8.03;68.90
59767;BME280;46248;58.364;25.582;2022-09-25T17:55:12;100170.94;;;7.98;69.51
59767;BME280;46248;58.364;25.582;2022-09-25T17:58:37;100160.94;;;7.89;69.04
59767;BME280;46248;58.364;25.582;2022-09-25T18:01:59;100161.44;;;7.78;68.95
59767;BME280;46248;58.364;25.582;2022-09-25T18:05:22;100140.78;;;7.55;69.23